x

Montauk Point -23 Nm Ssw Of Montauk Point, Ny (44017) Wave Buoy

12:50pm - Thu 25th Aug 2016 All times are EDT. -4 hours from GMT.

  • Sig Wave height 2.6ft
  • Swell Direction
  • Peak Period 10s
  • Average Period 4s
  • Wind
    16mph, 18mph gusts
  • Sea Temp 74°f
  • Air Temp 75°f
  • Sea Pressure 1019.9mb
  • Montauk Point -23 Nm Ssw Of Montauk Point, Ny
  • Montauk Point -23 Nm Ssw Of Montauk Point, Ny

More Historic Weather Station data

Upgrade to MSW Pro to gain access to the past 30 days of data for over 8000 Wavebouys and Weather Stations around the globe.

Join Pro

Comparision Forecast

View Surf forecast
   
Thu 08/25 12:50pm 2.5ft 10s 4s 16 18 mph 1019.9mb 74f 75f
11:50am 3ft 10s 5s 13 16 mph 1020.6mb 74f 75f
10:50am 3ft 10s 5s 11 13 mph 1020.7mb 74f 74f
9:50am 2.5ft 10s 5s 11 16 mph 1021.2mb 74f 74f
8:50am 3ft 10s 5s 13 16 mph 1021.3mb 74f 74f
7:50am 2.5ft 10s 4s 13 18 mph 1021.2mb 74f 74f
6:50am 3ft 10s 5s 13 18 mph 1021.3mb 74f 74f
5:50am 2.5ft 10s 4s 16 18 mph 1021.1mb 74f 74f
4:50am 3ft 11s 4s 16 18 mph 1020.9mb 74f 74f
3:50am 3ft 11s 4s 18 20 mph 1020.3mb 74f 75f
2:50am 3ft 11s 4s 16 18 mph 1021.1mb 74f 75f
1:50am 3ft 11s 4s 16 20 mph 1021.8mb 74f 75f
12:50am 2.5ft 11s 4s 18 20 mph 1022mb 74f 75f
Wed 08/24 10:50pm 2.5ft 11s 4s 16 18 mph 1022.6mb 74f 76f
9:50pm 2ft 11s 4s 13 16 mph 1023.2mb 74f 76f
8:50pm 2ft 11s 4s 13 16 mph 1023.3mb 74f 76f
7:50pm 2ft 11s 4s 13 16 mph 1023mb 74f 76f
6:50pm 1.6ft 11s 4s 13 16 mph 1023mb 75f 76f
5:50pm 2ft 11s 5s 11 13 mph 1022.9mb 75f 76f
4:50pm 1.6ft 11s 4s 11 13 mph 1023.3mb 75f 76f
3:50pm 1.6ft 12s 5s 11 13 mph 1023.6mb 75f 76f
2:50pm 1.6ft 12s 5s 9 11 mph 1024.1mb 75f 76f
1:50pm 1.6ft 12s 5s 9 11 mph 1024.6mb 75f 75f
12:50pm 1.6ft 12s  -  9 11 mph 1024.9mb 75f 74f
11:50am 1.6ft 12s 5s 7 9 mph 1025.3mb 74f 73f
10:50am 1.6ft 12s 4s 9 11 mph 1025.8mb 74f 73f
9:50am 1.6ft 12s 4s 11 13 mph 1025.7mb 74f 73f
8:50am 1.6ft 13s 4s 11
mph
1025.7mb 74f 73f
7:50am 1.6ft 13s 4s 11 13 mph 1025.9mb 74f 74f
5:50am 1.6ft 4s 4s 13
mph
1025.1mb 74f 73f
4:50am 1.6ft 13s 4s 13 16 mph 1025mb 74f 73f
3:50am 1.6ft 3s 4s 11 13 mph 1025.2mb 74f 73f
2:50am 1.6ft 8s 4s 13 16 mph 1025.3mb 74f 74f
1:50am 1.6ft 8s 4s 13 16 mph 1025.6mb 74f 74f
12:50am 1.6ft 9s 4s 13 16 mph 1025.5mb 74f 74f
Tue 08/23 11:50pm 1.6ft 10s 4s 11 13 mph 1025.6mb 74f 74f
10:50pm 1.3ft 11s 4s 11 13 mph 1025.5mb 74f 74f
9:50pm 1.3ft 8s 4s 11 13 mph 1025.5mb 74f 73f
8:50pm 1.3ft 12s 4s 9 11 mph 1025.3mb 74f 73f
7:50pm 1.3ft 9s 4s 11
mph
1024.9mb 74f 73f
6:50pm 1.6ft 12s 5s 11 13 mph 1025mb 74f 73f
5:50pm 1.3ft 8s 5s 11 13 mph 1025.3mb 75f 73f
4:50pm 1.3ft 9s 6s 11
mph
1025.5mb 75f 73f
3:50pm 1.3ft 6s 6s 9 11 mph 1025.6mb 76f 72f
2:50pm 1.3ft 6s 6s 7 9 mph 1026mb 76f 71f
1:50pm 1.6ft 8s 5s 4 9 mph 1026.6mb 76f 71f
12:50pm 1.6ft 7s 5s  -  2 mph 1026.8mb 75f 71f
11:50am 1.6ft 11s 5s 2 4 mph 1026.9mb 75f 69f
10:50am 1.6ft 11s 4s 4 7 mph 1027.1mb 74f 69f
9:50am 1.6ft 12s 4s 9
mph
1026.7mb 74f 68f
8:50am 1.6ft 11s 4s 9 11 mph 1026.2mb 74f 68f
7:50am 2ft 3s 4s 11 16 mph 1025.9mb 74f 68f
6:50am 1.6ft 13s 4s 13 16 mph 1025.4mb 74f 69f
4:50am 2ft 12s 4s 16
mph
1023.7mb 74f 68f
3:50am 1.6ft 9s 4s 13 16 mph 1023.4mb 74f 69f
2:50am 2ft 3s 4s 16 18 mph 1023.3mb 74f 69f
1:50am 2ft 3s 4s 16 18 mph 1023.1mb 74f 69f
12:50am 2.5ft 3s 4s 16 18 mph 1022.8mb 74f 70f
Mon 08/22 11:50pm 3ft 4s 4s 18 20 mph 1022.3mb 74f 70f
10:50pm 3ft 4s 4s 20 25 mph 1021.4mb 74f 71f
9:50pm 3ft 4s 4s 22 29 mph 1020.3mb 74f 71f
8:50pm 2.5ft 4s 4s 25 29 mph 1019.3mb 74f 72f
7:50pm 2.5ft 3s 4s 20 25 mph 1018mb 74f 73f
6:50pm 2.5ft 5s 4s 20 25 mph 1016.7mb 75f 75f
5:50pm 2.5ft 4s 4s 22 25 mph 1015.9mb 75f 75f
4:50pm 3ft 4s 4s 20 25 mph 1015.4mb 75f 75f
3:50pm 3.5ft 5s 4s 20 25 mph 1014.7mb 75f 75f
2:50pm 3.5ft 4s 4s 22 27 mph 1014.3mb 76f 75f
1:50pm 3.5ft 5s 4s 20 25 mph 1014.2mb 76f 74f
12:50pm 3ft 4s 4s 22 27 mph 1013.6mb 76f 73f
11:50am 3.5ft 4s 4s 25 29 mph 1013.6mb 76f 73f
10:50am 3.5ft 4s 4s 22 25 mph 1013.3mb 76f 72f
9:50am 3.5ft 4s 4s 25 29 mph 1012.6mb 76f 73f
8:50am 3.5ft 4s 4s 22 29 mph 1012mb 76f 72f
7:50am 3ft 3s 4s 25 29 mph 1011.1mb 76f 72f
6:50am 3ft 5s 4s 22 27 mph 1010.2mb 77f 73f
5:50am 3.5ft 3s 4s 16 20 mph 1009.4mb 77f 72f
4:50am 3.5ft 5s 4s 25 29 mph 1008.8mb 77f 69f
3:50am 3.5ft 4s 4s 22 25 mph 1008.3mb 78f 74f
2:50am 3ft 4s 4s 25 29 mph 1008.1mb 78f 77f
1:50am 2.5ft 3s 4s 18 22 mph 1008.1mb 78f 80f
12:50am 2.5ft 8s 4s 16 18 mph 1008.7mb 78f 79f
Sun 08/21 10:50pm 2.5ft 5s 5s 13 16 mph 1009.6mb 78f 79f
9:50pm 3ft 5s 4s 13 16 mph 1009.6mb 78f 79f
8:50pm 3ft 6s 5s 13
mph
1010mb 78f 78f
7:50pm 3.5ft 6s 5s 13 16 mph 1010.5mb 78f 78f
6:50pm 4ft 6s 5s 16 18 mph 1010mb 78f 78f
5:50pm 4ft 6s 5s 16 18 mph 1010.3mb 78f 78f